Aparecida, Brazil
Current Conditions -  °F | °C
As of 2:00 PM on Monday 26 Jan 2015 (Local Time) from SBGW Reporting Station
Scattered Clouds Scattered Clouds  
Wind Chill: 88°   Ceiling: Unl
Heat Index: 88°   Visibility: 6mi
Dew Point: 63°   Wind: 3mph
Humidity: 43%   Direction: 90°E
Pressure: 29.97"   Gusts: NA
Location:  22.85°S, 45.23°W
Report Text: SBGW 261600Z 09003KT 9999 SCT025 FEW030TCU 31/17 Q1015
Loading
Personal Weather Stations






























Interactive Weather Map New forecast layout! Learn more

10-Day Weather Forecast

Advertisements
Track Severe Weather on mobile